createdAt,value
2018-12-14T00:01:11.040Z,10.50
2018-12-14T00:03:52.422Z,10.77
2018-12-14T00:06:26.531Z,11.23
2018-12-14T00:09:02.365Z,10.37
2018-12-14T00:11:45.528Z,11.57
2018-12-14T00:14:26.713Z,10.60
2018-12-14T00:17:00.292Z,11.20
2018-12-14T00:19:35.580Z,10.60
2018-12-14T00:22:14.695Z,10.83
2018-12-14T00:24:56.259Z,11.37
2018-12-14T00:27:37.817Z,11.57
2018-12-14T00:30:20.104Z,10.73
2018-12-14T00:32:57.684Z,11.97
2018-12-14T00:35:36.245Z,11.37
2018-12-14T00:38:11.461Z,9.20
2018-12-14T00:40:51.773Z,11.73
2018-12-14T00:43:32.236Z,11.23
2018-12-14T00:46:11.611Z,9.47
2018-12-14T00:48:46.900Z,11.00
2018-12-14T00:51:20.683Z,12.53
2018-12-14T00:54:02.661Z,10.67
2018-12-14T00:56:44.165Z,12.00
2018-12-14T00:59:20.015Z,10.47
2018-12-14T01:01:55.704Z,10.13
2018-12-14T01:04:31.500Z,11.63
2018-12-14T01:07:10.437Z,11.57
2018-12-14T01:09:53.096Z,12.37
2018-12-14T01:12:31.019Z,11.20
2018-12-14T01:15:15.434Z,10.47
2018-12-14T01:17:57.036Z,10.80
2018-12-14T01:20:35.720Z,11.13
2018-12-14T01:23:10.798Z,11.87
2018-12-14T01:25:48.549Z,11.47
2018-12-14T01:28:27.715Z,11.33
2018-12-14T01:31:07.655Z,10.90
2018-12-14T01:33:47.461Z,12.27
2018-12-14T01:36:28.264Z,10.93
2018-12-14T01:39:12.035Z,12.33
2018-12-14T01:41:52.477Z,12.00
2018-12-14T01:44:33.450Z,11.93
2018-12-14T01:47:12.454Z,11.80
2018-12-14T01:49:51.472Z,13.23
2018-12-14T01:52:31.567Z,11.90
2018-12-14T01:55:10.765Z,10.97
2018-12-14T01:57:50.241Z,11.37
2018-12-14T02:00:33.249Z,12.23
2018-12-14T02:03:12.070Z,11.50
2018-12-14T02:05:51.970Z,12.10
2018-12-14T02:08:29.533Z,12.07
2018-12-14T02:11:12.819Z,13.00
2018-12-14T02:13:54.512Z,13.07
2018-12-14T02:16:35.558Z,12.70
2018-12-14T02:19:16.716Z,12.50
2018-12-14T02:21:54.716Z,12.13
2018-12-14T02:24:36.596Z,11.53
2018-12-14T02:27:16.986Z,12.83
2018-12-14T02:29:57.306Z,11.33
2018-12-14T02:32:35.013Z,12.43
2018-12-14T02:35:17.805Z,12.97
2018-12-14T02:37:58.740Z,12.47
2018-12-14T02:40:40.942Z,11.83
2018-12-14T02:43:14.241Z,13.33
2018-12-14T02:45:56.844Z,12.23
2018-12-14T02:48:36.985Z,12.70
2018-12-14T02:51:14.885Z,12.63
2018-12-14T02:53:55.873Z,12.97
2018-12-14T02:56:35.094Z,13.27
2018-12-14T02:59:19.396Z,12.03
2018-12-14T03:01:59.423Z,11.57
2018-12-14T03:04:38.384Z,11.83
2018-12-14T03:07:16.450Z,12.53
2018-12-14T03:09:56.492Z,12.00
2018-12-14T03:12:36.935Z,13.67
2018-12-14T03:15:17.574Z,13.17
2018-12-14T03:17:58.398Z,13.23
2018-12-14T03:20:39.759Z,12.80
2018-12-14T03:23:24.311Z,12.50
2018-12-14T03:26:05.115Z,12.90
2018-12-14T03:28:49.154Z,12.83
2018-12-14T03:31:29.673Z,14.33
2018-12-14T03:34:11.059Z,13.97
2018-12-14T03:36:50.761Z,14.50
2018-12-14T03:39:29.126Z,15.50
2018-12-14T03:42:10.685Z,13.90
2018-12-14T03:44:52.516Z,15.17
2018-12-14T03:47:32.027Z,14.23
2018-12-14T03:50:11.131Z,14.57
2018-12-14T03:52:52.463Z,16.37
2018-12-14T03:55:33.502Z,15.00
2018-12-14T03:58:16.204Z,14.97
2018-12-14T04:00:52.446Z,16.63
2018-12-14T04:03:36.265Z,15.17
2018-12-14T04:06:19.854Z,16.30
2018-12-14T04:08:58.594Z,12.73
2018-12-14T04:11:37.836Z,14.77
2018-12-14T04:14:22.726Z,14.47
2018-12-14T04:17:03.567Z,13.57
2018-12-14T04:19:42.663Z,13.23
2018-12-14T04:22:23.148Z,13.80
2018-12-14T04:25:04.178Z,13.43
2018-12-14T04:27:42.529Z,13.00
2018-12-14T04:30:24.045Z,13.33
2018-12-14T04:33:00.861Z,12.40
2018-12-14T04:35:45.422Z,12.27
2018-12-14T04:38:22.762Z,12.37
2018-12-14T04:40:58.610Z,12.73
2018-12-14T04:43:34.262Z,14.57
2018-12-14T04:46:15.360Z,13.50
2018-12-14T04:48:54.703Z,12.03
2018-12-14T04:51:34.667Z,11.90
2018-12-14T04:54:10.760Z,10.83
2018-12-14T04:56:52.852Z,11.80
2018-12-14T04:59:29.273Z,12.00
2018-12-14T05:02:06.028Z,12.83
2018-12-14T05:04:43.164Z,11.20
2018-12-14T05:07:18.319Z,12.23
2018-12-14T05:09:57.026Z,11.63
2018-12-14T05:12:36.912Z,11.87
2018-12-14T05:15:16.090Z,11.97
2018-12-14T05:17:51.150Z,13.43
2018-12-14T05:20:31.103Z,12.27
2018-12-14T05:23:12.357Z,13.07
2018-12-14T05:25:50.104Z,14.03
2018-12-14T05:28:30.819Z,12.73
2018-12-14T05:31:12.260Z,14.23
2018-12-14T05:33:50.716Z,14.70
2018-12-14T05:36:29.745Z,12.10
2018-12-14T05:39:11.977Z,14.93
2018-12-14T05:41:53.296Z,13.27
2018-12-14T05:44:33.391Z,13.90
2018-12-14T05:47:13.856Z,13.53
2018-12-14T05:49:52.969Z,13.93
2018-12-14T05:52:27.374Z,14.13
2018-12-14T05:55:06.378Z,12.20
2018-12-14T05:57:48.771Z,13.97
2018-12-14T06:00:27.666Z,14.10
2018-12-14T06:03:03.877Z,11.13
2018-12-14T06:05:42.769Z,14.00
2018-12-14T06:08:20.809Z,11.83
2018-12-14T06:11:02.047Z,12.77
2018-12-14T06:13:43.613Z,13.47
2018-12-14T06:16:27.647Z,13.97
2018-12-14T06:19:07.121Z,13.60
2018-12-14T06:21:44.501Z,16.03
2018-12-14T06:24:23.555Z,13.53
2018-12-14T06:27:01.455Z,13.20
2018-12-14T06:29:39.044Z,13.43
2018-12-14T06:32:15.452Z,14.10
2018-12-14T06:34:51.325Z,14.10
2018-12-14T06:37:29.149Z,13.40
2018-12-14T06:40:09.049Z,13.70
2018-12-14T06:42:51.115Z,14.60
2018-12-14T06:45:31.657Z,13.57
2018-12-14T06:48:08.369Z,14.07
2018-12-14T06:50:49.188Z,14.10
2018-12-14T06:53:29.578Z,13.97
2018-12-14T06:56:09.893Z,14.50
2018-12-14T06:58:52.537Z,15.27
2018-12-14T07:01:32.048Z,15.13
2018-12-14T07:04:12.949Z,16.10
2018-12-14T07:06:51.805Z,15.70
2018-12-14T07:09:32.233Z,17.40
2018-12-14T07:12:11.514Z,16.87
2018-12-14T07:14:51.662Z,17.60
2018-12-14T07:17:30.523Z,16.37
2018-12-14T07:20:12.054Z,18.50
2018-12-14T07:22:52.561Z,17.53
2018-12-14T07:25:32.669Z,19.10
2018-12-14T07:28:13.081Z,18.83
2018-12-14T07:30:51.350Z,16.13
2018-12-14T07:33:34.239Z,18.03
2018-12-14T07:36:13.629Z,18.23
2018-12-14T07:38:54.473Z,20.50
2018-12-14T07:41:35.257Z,20.43
2018-12-14T07:44:14.393Z,17.17
2018-12-14T07:46:53.021Z,20.57
2018-12-14T07:49:35.171Z,19.57
2018-12-14T07:52:18.164Z,20.20
2018-12-14T07:54:58.093Z,20.93
2018-12-14T07:57:38.356Z,20.13
2018-12-14T08:00:17.000Z,19.07
2018-12-14T08:02:56.214Z,19.40
2018-12-14T08:05:36.201Z,19.73
2018-12-14T08:08:15.204Z,19.77
2018-12-14T08:10:57.655Z,16.97
2018-12-14T08:13:38.611Z,20.27
2018-12-14T08:16:23.568Z,18.67
2018-12-14T08:19:01.710Z,18.70
2018-12-14T08:21:43.248Z,19.10
2018-12-14T08:24:22.430Z,20.50
2018-12-14T08:27:01.207Z,18.70
2018-12-14T08:29:42.228Z,20.30
2018-12-14T08:32:23.437Z,19.20
2018-12-14T08:35:04.207Z,18.67
2018-12-14T08:37:44.469Z,20.10
2018-12-14T08:40:24.634Z,17.43
2018-12-14T08:43:04.853Z,18.93
2018-12-14T08:45:43.398Z,19.43
2018-12-14T08:48:23.684Z,18.10
2018-12-14T08:51:02.731Z,15.37
2018-12-14T08:53:43.743Z,20.57
2018-12-14T08:56:26.259Z,19.80
2018-12-14T08:59:06.295Z,17.73
2018-12-14T09:01:48.980Z,19.23
2018-12-14T09:04:29.930Z,20.20
2018-12-14T09:07:11.442Z,20.00
2018-12-14T09:09:51.360Z,18.90
2018-12-14T09:12:31.289Z,18.13
2018-12-14T09:15:11.116Z,18.27
2018-12-14T09:17:51.463Z,18.60
2018-12-14T09:20:34.549Z,19.67
2018-12-14T09:23:17.419Z,19.67
2018-12-14T09:25:58.083Z,18.47
2018-12-14T09:28:40.574Z,20.00
2018-12-14T09:31:23.486Z,19.17
2018-12-14T09:34:06.479Z,15.57
2018-12-14T09:36:47.217Z,19.43
2018-12-14T09:39:27.201Z,18.33
2018-12-14T09:42:06.858Z,18.50
2018-12-14T09:44:49.339Z,19.50
2018-12-14T09:47:26.750Z,20.13
2018-12-14T09:50:06.200Z,19.50
2018-12-14T09:52:47.304Z,20.17
2018-12-14T09:55:27.336Z,19.77
2018-12-14T09:58:06.198Z,19.50
2018-12-14T10:00:44.987Z,18.80
2018-12-14T10:03:26.186Z,20.53
2018-12-14T10:06:02.876Z,19.27
2018-12-14T10:08:44.308Z,18.93
2018-12-14T10:11:39.557Z,16.63
2018-12-14T10:14:22.225Z,19.17
2018-12-14T10:17:02.182Z,20.07
2018-12-14T10:19:42.097Z,22.03
2018-12-14T10:22:20.762Z,19.60
2018-12-14T10:25:00.126Z,19.17
2018-12-14T10:27:40.268Z,19.90
2018-12-14T10:30:20.622Z,19.57
2018-12-14T10:33:02.661Z,18.97
2018-12-14T10:35:42.893Z,18.33
2018-12-14T10:38:22.612Z,18.60
2018-12-14T10:41:02.664Z,17.33
2018-12-14T10:43:43.113Z,20.07
2018-12-14T10:46:22.400Z,18.97
2018-12-14T10:49:02.721Z,17.90
2018-12-14T10:51:43.834Z,18.87
2018-12-14T10:54:27.742Z,20.10
2018-12-14T10:57:08.505Z,20.27
2018-12-14T10:59:48.069Z,16.93
2018-12-14T11:02:31.565Z,18.47
2018-12-14T11:05:12.996Z,18.63
2018-12-14T11:07:51.657Z,18.93
2018-12-14T11:10:31.633Z,19.43
2018-12-14T11:13:11.793Z,19.20
2018-12-14T11:15:50.179Z,18.43
2018-12-14T11:18:29.218Z,18.40
2018-12-14T11:21:15.245Z,16.80
2018-12-14T11:23:54.492Z,19.33
2018-12-14T11:26:36.102Z,19.17
2018-12-14T11:29:18.559Z,20.00
2018-12-14T11:31:57.839Z,18.17
2018-12-14T11:34:38.718Z,18.27
2018-12-14T11:37:17.556Z,16.27
2018-12-14T11:39:59.044Z,16.00
2018-12-14T11:42:36.812Z,17.70
2018-12-14T11:45:13.840Z,16.97
2018-12-14T11:47:54.696Z,18.57
2018-12-14T11:50:35.494Z,17.87
2018-12-14T11:53:19.552Z,16.90
2018-12-14T11:55:58.468Z,17.30
2018-12-14T11:58:38.766Z,16.47
2018-12-14T12:01:18.358Z,16.60
2018-12-14T12:03:58.564Z,17.37
2018-12-14T12:06:41.329Z,19.03
2018-12-14T12:09:23.327Z,18.87
2018-12-14T12:12:03.493Z,16.90
2018-12-14T12:14:42.350Z,17.00
2018-12-14T12:17:21.254Z,15.40
2018-12-14T12:20:00.935Z,17.50
2018-12-14T12:22:46.926Z,17.13
2018-12-14T12:25:27.387Z,17.60
2018-12-14T12:28:12.282Z,16.60
2018-12-14T12:30:49.772Z,15.57
2018-12-14T12:33:27.816Z,14.30
2018-12-14T12:36:10.928Z,16.23
2018-12-14T12:38:53.618Z,13.53
2018-12-14T12:41:33.312Z,15.63
2018-12-14T12:44:13.772Z,14.37
2018-12-14T12:46:54.544Z,15.77
2018-12-14T12:49:35.510Z,15.53
2018-12-14T12:52:13.376Z,15.37
2018-12-14T12:54:55.611Z,14.67
2018-12-14T12:57:38.415Z,13.73
2018-12-14T13:00:18.069Z,14.60
2018-12-14T13:02:57.908Z,15.90
2018-12-14T13:05:37.838Z,13.33
2018-12-14T13:08:18.083Z,12.73
2018-12-14T13:10:57.704Z,11.23
2018-12-14T13:13:40.625Z,14.07
2018-12-14T13:16:20.890Z,12.57
2018-12-14T13:19:02.933Z,14.00
2018-12-14T13:21:42.323Z,13.13
2018-12-14T13:24:25.388Z,13.47
2018-12-14T13:27:04.332Z,13.43
2018-12-14T13:29:45.398Z,13.67
2018-12-14T13:32:30.820Z,12.93
2018-12-14T13:35:11.850Z,14.43
2018-12-14T13:37:54.711Z,12.30
2018-12-14T13:40:31.788Z,12.67
2018-12-14T13:43:10.984Z,12.10
2018-12-14T13:45:53.214Z,12.07
2018-12-14T13:48:32.610Z,13.93
2018-12-14T13:51:13.399Z,12.70
2018-12-14T13:53:55.081Z,11.97
2018-12-14T13:56:37.377Z,12.63
2018-12-14T13:59:17.466Z,10.80
2018-12-14T14:01:57.231Z,12.90
2018-12-14T14:04:38.988Z,11.77
2018-12-14T14:07:17.271Z,12.17
2018-12-14T14:09:58.259Z,12.27
2018-12-14T14:12:40.995Z,12.37
2018-12-14T14:15:21.118Z,11.87
2018-12-14T14:18:05.828Z,12.43
2018-12-14T14:20:46.408Z,11.80
2018-12-14T14:23:26.172Z,11.87
2018-12-14T14:26:08.329Z,11.87
2018-12-14T14:28:48.835Z,13.07
2018-12-14T14:31:27.310Z,11.47
2018-12-14T14:34:05.530Z,10.93
2018-12-14T14:36:46.242Z,11.13
2018-12-14T14:39:27.016Z,12.17
2018-12-14T14:42:08.321Z,11.40
2018-12-14T14:44:48.915Z,10.37
2018-12-14T14:47:29.393Z,8.47
2018-12-14T14:50:09.929Z,9.67
2018-12-14T14:52:50.855Z,9.17
2018-12-14T14:55:32.711Z,10.53
2018-12-14T14:58:13.591Z,8.37
2018-12-14T15:00:53.163Z,9.50
2018-12-14T15:03:33.801Z,11.23
2018-12-14T15:06:14.290Z,10.07
2018-12-14T15:08:53.416Z,8.87
2018-12-14T15:11:34.923Z,9.30
2018-12-14T15:14:14.236Z,10.73
2018-12-14T15:16:55.210Z,10.93
2018-12-14T15:19:35.704Z,12.17
2018-12-14T15:22:14.697Z,10.97
2018-12-14T15:24:55.952Z,10.80
2018-12-14T15:27:29.128Z,11.97
2018-12-14T15:30:08.335Z,11.63
2018-12-14T15:32:47.909Z,13.73
2018-12-14T15:35:25.991Z,13.17
2018-12-14T15:38:02.166Z,11.27
2018-12-14T15:40:35.890Z,11.93
2018-12-14T15:43:11.689Z,12.37
2018-12-14T15:45:48.640Z,13.37
2018-12-14T15:48:25.119Z,12.00
2018-12-14T15:51:02.285Z,14.70
2018-12-14T15:53:37.873Z,14.10
2018-12-14T15:56:19.395Z,13.30
2018-12-14T15:58:59.914Z,14.73
2018-12-14T16:01:37.185Z,14.63
2018-12-14T16:04:11.793Z,14.67
2018-12-14T16:06:50.784Z,17.43
2018-12-14T16:09:29.299Z,15.73
2018-12-14T16:12:02.672Z,16.63
2018-12-14T16:14:40.166Z,13.00
2018-12-14T16:17:21.208Z,18.30
2018-12-14T16:19:59.136Z,16.90
2018-12-14T16:22:36.266Z,18.87
2018-12-14T16:25:09.138Z,20.47
2018-12-14T16:27:49.642Z,20.37
2018-12-14T16:30:26.097Z,19.07
2018-12-14T16:33:00.841Z,19.90
2018-12-14T16:35:40.407Z,21.50
2018-12-14T16:38:17.098Z,21.90
2018-12-14T16:40:54.407Z,21.60
2018-12-14T16:43:35.164Z,21.93
2018-12-14T16:46:11.200Z,22.00
2018-12-14T16:48:49.239Z,22.03
2018-12-14T16:51:30.706Z,20.80
2018-12-14T16:54:10.321Z,24.10
2018-12-14T16:56:49.389Z,22.80
2018-12-14T16:59:31.202Z,24.77
2018-12-14T17:02:11.862Z,26.47
2018-12-14T17:04:47.927Z,25.37
2018-12-14T17:07:27.281Z,23.90
2018-12-14T17:10:09.361Z,24.30
2018-12-14T17:12:48.186Z,25.47
2018-12-14T17:15:25.951Z,24.57
2018-12-14T17:18:02.355Z,25.33
2018-12-14T17:20:38.561Z,23.60
2018-12-14T17:23:17.106Z,26.20
2018-12-14T17:25:55.178Z,26.37
2018-12-14T17:28:39.036Z,25.57
2018-12-14T17:31:15.972Z,25.50
2018-12-14T17:33:49.049Z,25.10
2018-12-14T17:36:28.067Z,23.87
2018-12-14T17:39:06.705Z,23.97
2018-12-14T17:41:44.158Z,24.80
2018-12-14T17:44:21.172Z,22.10
2018-12-14T17:46:59.130Z,25.50
2018-12-14T17:49:39.944Z,22.13
2018-12-14T17:52:17.625Z,27.60
2018-12-14T17:54:56.314Z,25.63
2018-12-14T17:57:35.729Z,28.13
2018-12-14T18:00:15.031Z,26.07
2018-12-14T18:02:49.992Z,25.40
2018-12-14T18:05:28.257Z,27.53
2018-12-14T18:08:04.623Z,24.63
2018-12-14T18:10:40.795Z,25.17
2018-12-14T18:13:18.000Z,27.00
2018-12-14T18:15:56.106Z,27.63
2018-12-14T18:18:32.605Z,27.60
2018-12-14T18:21:13.752Z,26.30
2018-12-14T18:23:52.140Z,26.27
2018-12-14T18:26:30.482Z,25.97
2018-12-14T18:29:08.448Z,26.37
2018-12-14T18:31:44.469Z,27.63
2018-12-14T18:34:17.233Z,22.93
2018-12-14T18:36:51.987Z,26.80
2018-12-14T18:39:29.236Z,26.37
2018-12-14T18:42:06.613Z,26.97
2018-12-14T18:44:44.725Z,26.47
2018-12-14T18:47:22.562Z,26.17
2018-12-14T18:50:00.223Z,28.87
2018-12-14T18:52:37.641Z,28.57
2018-12-14T18:55:14.832Z,26.80
2018-12-14T18:57:52.301Z,27.13
2018-12-14T19:00:31.791Z,27.57
2018-12-14T19:03:09.955Z,26.57
2018-12-14T19:05:47.939Z,24.90
2018-12-14T19:08:26.101Z,26.17
2018-12-14T19:11:00.332Z,25.77
2018-12-14T19:13:34.862Z,27.73
2018-12-14T19:17:14.965Z,28.30
2018-12-14T19:19:52.836Z,28.57
2018-12-14T19:22:30.301Z,25.60
2018-12-14T19:25:09.056Z,26.20
2018-12-14T19:27:45.912Z,27.40
2018-12-14T19:30:21.434Z,27.37
2018-12-14T19:32:55.830Z,27.33
2018-12-14T19:35:35.623Z,29.13
2018-12-14T19:38:09.098Z,28.17
2018-12-14T19:40:47.750Z,26.83
2018-12-14T19:43:25.001Z,27.73
2018-12-14T19:46:06.325Z,27.10
2018-12-14T19:48:37.921Z,25.87
2018-12-14T19:51:14.242Z,28.13
2018-12-14T19:53:50.688Z,28.80
2018-12-14T19:56:27.922Z,26.63
2018-12-14T19:59:02.542Z,28.63
2018-12-14T20:01:39.781Z,28.67
2018-12-14T20:04:16.245Z,27.13
2018-12-14T20:06:51.211Z,28.07
2018-12-14T20:09:28.380Z,28.00
2018-12-14T20:12:03.141Z,26.30
2018-12-14T20:14:38.320Z,28.37
2018-12-14T20:17:14.955Z,27.40
2018-12-14T20:19:50.742Z,27.63
2018-12-14T20:22:30.955Z,27.13
2018-12-14T20:25:03.901Z,28.20
2018-12-14T20:27:37.976Z,28.53
2018-12-14T20:30:10.631Z,27.97
2018-12-14T20:32:45.178Z,27.60
2018-12-14T20:35:26.821Z,29.03
2018-12-14T20:38:06.768Z,28.50
2018-12-14T20:40:41.198Z,30.77
2018-12-14T20:43:18.386Z,28.80
2018-12-14T20:45:52.566Z,30.77
2018-12-14T20:48:27.469Z,27.33
2018-12-14T20:51:04.803Z,26.57
2018-12-14T20:53:44.146Z,32.37
2018-12-14T20:56:25.704Z,28.43
2018-12-14T20:59:06.185Z,28.70
2018-12-14T21:01:45.654Z,28.90
2018-12-14T21:04:28.267Z,30.30
2018-12-14T21:07:05.883Z,27.17
2018-12-14T21:09:45.046Z,28.53
2018-12-14T21:12:24.552Z,28.77
2018-12-14T21:15:05.300Z,29.57
2018-12-14T21:17:44.921Z,30.47
2018-12-14T21:20:25.558Z,27.27
2018-12-14T21:23:06.277Z,30.53
2018-12-14T21:25:46.722Z,26.97
2018-12-14T21:28:28.588Z,30.60
2018-12-14T21:31:08.422Z,29.97
2018-12-14T21:33:51.139Z,26.77
2018-12-14T21:36:33.999Z,30.17
2018-12-14T21:39:12.007Z,30.70
2018-12-14T21:41:54.833Z,29.97
2018-12-14T21:44:34.615Z,30.63
2018-12-14T21:47:17.692Z,31.30
2018-12-14T21:49:59.561Z,30.17
2018-12-14T21:52:38.872Z,23.23
2018-12-14T21:55:21.089Z,29.80
2018-12-14T21:58:01.613Z,28.53
2018-12-14T22:00:41.697Z,26.17
2018-12-14T22:03:22.114Z,28.60
2018-12-14T22:05:58.120Z,32.83
2018-12-14T22:08:40.583Z,30.10
2018-12-14T22:11:18.924Z,29.67
2018-12-14T22:13:56.913Z,30.07
2018-12-14T22:16:39.218Z,30.33
2018-12-14T22:19:17.985Z,27.97
2018-12-14T22:21:57.541Z,27.10
2018-12-14T22:24:37.413Z,28.63
2018-12-14T22:27:15.784Z,27.83
2018-12-14T22:29:54.823Z,28.50
2018-12-14T22:32:35.235Z,24.73
2018-12-14T22:35:14.203Z,27.80
2018-12-14T22:37:53.665Z,26.77
2018-12-14T22:40:34.959Z,27.97
2018-12-14T22:43:15.727Z,25.20
2018-12-14T22:45:56.275Z,27.07
2018-12-14T22:48:37.184Z,29.43
2018-12-14T22:51:17.048Z,29.60
2018-12-14T22:53:55.789Z,28.40
2018-12-14T22:56:36.365Z,26.00
2018-12-14T22:59:18.284Z,27.80
2018-12-14T23:01:58.769Z,26.83
2018-12-14T23:04:36.368Z,28.73
2018-12-14T23:07:14.148Z,26.73
2018-12-14T23:09:56.140Z,27.03
2018-12-14T23:12:38.787Z,29.20
2018-12-14T23:15:19.168Z,27.93
2018-12-14T23:18:01.430Z,26.00
2018-12-14T23:20:41.069Z,27.47
2018-12-14T23:23:20.071Z,25.70
2018-12-14T23:26:00.127Z,27.63
2018-12-14T23:28:42.152Z,25.83
2018-12-14T23:31:21.427Z,26.13
2018-12-14T23:34:02.899Z,29.03
2018-12-14T23:36:44.921Z,28.30
2018-12-14T23:39:23.008Z,26.30
2018-12-14T23:42:01.053Z,24.93
2018-12-14T23:44:39.263Z,27.30
2018-12-14T23:47:22.405Z,27.87
2018-12-14T23:50:01.940Z,25.70
2018-12-14T23:52:43.786Z,24.63
2018-12-14T23:55:26.038Z,27.27
2018-12-14T23:58:05.936Z,26.00
